This is the latest recevied weather packets stored in our database for station/object N1ORT. If no packets are shown the sender has not sent any weather packets the latest 10 day(s).
| Time | Temp. | Humidity | Pressure | Rain* | Wind** | Luminosity | Snow |
|---|---|---|---|---|---|---|---|
| 1778006527 | 27.78° C | 36% | 1004.1 hPa | 0 mm | - | 855 W/m² | - |
| 1778006223 | 27.22° C | 36% | 1004.3 hPa | 0 mm | - | 227 W/m² | - |
| 1778005921 | 27.78° C | 38% | 1004 hPa | 0 mm | - | 551 W/m² | - |
| 1778005617 | 27.78° C | 37% | 1004.2 hPa | 0 mm | - | 224 W/m² | - |
| 1778005314 | 28.89° C | 36% | 1004.1 hPa | 0 mm | - | 823 W/m² | - |
| 1778005010 | 28.33° C | 37% | 1004.2 hPa | 0 mm | - | 912 W/m² | - |
| 1778004708 | 28.33° C | 38% | 1004.2 hPa | 0 mm | - | 865 W/m² | - |
| 1778004404 | 28.33° C | 38% | 1004.2 hPa | 0 mm | - | 839 W/m² | - |
| 1778004102 | 28.33° C | 37% | 1004.8 hPa | 0 mm | - | 881 W/m² | - |
| 1778003798 | 28.33° C | 38% | 1004.7 hPa | 0 mm | - | 864 W/m² | - |
| 1778003494 | 28.33° C | 38% | 1004.8 hPa | 0 mm | - | 838 W/m² | - |
| 1778003191 | 27.78° C | 38% | 1004.6 hPa | 0 mm | - | 839 W/m² | - |
| 1778002887 | 28.33° C | 37% | 1004.9 hPa | 0 mm | - | 875 W/m² | - |
| 1778002584 | 27.78° C | 38% | 1004.9 hPa | 0 mm | - | 843 W/m² | - |
| 1778002281 | 27.78° C | 38% | 1004.8 hPa | 0 mm | - | 875 W/m² | - |
| 1778001978 | 27.78° C | 41% | 1005.1 hPa | 0 mm | - | 875 W/m² | - |
| 1778001675 | 27.78° C | 39% | 1005 hPa | 0 mm | - | 909 W/m² | - |
| 1778001369 | 27.78° C | 41% | 1005.3 hPa | 0 mm | - | 924 W/m² | - |
| 1778001067 | 27.22° C | 42% | 1005.3 hPa | 0 mm | - | 856 W/m² | - |
| 1778000764 | 27.22° C | 41% | 1005.3 hPa | 0 mm | - | 939 W/m² | - |
| 1778000460 | 26.67° C | 43% | 1005.5 hPa | 0 mm | - | 903 W/m² | - |
| 1778000155 | 27.22° C | 41% | 1005.4 hPa | 0 mm | - | 913 W/m² | - |
| 1777999851 | 27.22° C | 42% | 1005.7 hPa | 0 mm | - | 920 W/m² | - |
| 1777999547 | 27.22° C | 44% | 1005.9 hPa | 0 mm | - | 917 W/m² | - |
| 1777999245 | 26.67° C | 46% | 1005.7 hPa | 0 mm | - | 924 W/m² | - |
* Rain latest hour (hover to see other rain measurements)
** Current wind speed in m/s (hover to see current wind gust speed)